sensor_id;sensor_type;location;lat;lon;timestamp;P1;durP1;ratioP1;P2;durP2;ratioP2
7703;SDS011;3894;49.700;10.770;2023-04-01T00:00:18;4.00;;;0.68;;
7703;SDS011;3894;49.700;10.770;2023-04-01T00:02:45;2.88;;;0.40;;
7703;SDS011;3894;49.700;10.770;2023-04-01T00:05:10;4.72;;;0.82;;
7703;SDS011;3894;49.700;10.770;2023-04-01T00:07:37;4.53;;;0.60;;
7703;SDS011;3894;49.700;10.770;2023-04-01T00:10:05;6.50;;;1.90;;
7703;SDS011;3894;49.700;10.770;2023-04-01T00:12:32;5.32;;;1.05;;
7703;SDS011;3894;49.700;10.770;2023-04-01T00:14:58;6.80;;;1.17;;
7703;SDS011;3894;49.700;10.770;2023-04-01T00:17:24;5.82;;;1.45;;
7703;SDS011;3894;49.700;10.770;2023-04-01T00:19:50;5.55;;;1.60;;
7703;SDS011;3894;49.700;10.770;2023-04-01T00:22:15;4.05;;;1.17;;
7703;SDS011;3894;49.700;10.770;2023-04-01T00:24:41;5.55;;;1.20;;
7703;SDS011;3894;49.700;10.770;2023-04-01T00:27:07;5.85;;;0.80;;
7703;SDS011;3894;49.700;10.770;2023-04-01T00:29:33;6.88;;;1.58;;
7703;SDS011;3894;49.700;10.770;2023-04-01T00:31:59;5.00;;;0.60;;
7703;SDS011;3894;49.700;10.770;2023-04-01T00:34:24;3.45;;;0.35;;
7703;SDS011;3894;49.700;10.770;2023-04-01T00:36:50;2.17;;;0.40;;
7703;SDS011;3894;49.700;10.770;2023-04-01T00:39:17;3.88;;;0.40;;
7703;SDS011;3894;49.700;10.770;2023-04-01T00:41:43;4.63;;;0.45;;
7703;SDS011;3894;49.700;10.770;2023-04-01T00:44:19;5.20;;;0.82;;
7703;SDS011;3894;49.700;10.770;2023-04-01T00:46:46;3.97;;;0.43;;
7703;SDS011;3894;49.700;10.770;2023-04-01T00:49:12;3.70;;;0.75;;
7703;SDS011;3894;49.700;10.770;2023-04-01T00:51:40;4.63;;;0.50;;
7703;SDS011;3894;49.700;10.770;2023-04-01T00:54:07;3.15;;;0.60;;
7703;SDS011;3894;49.700;10.770;2023-04-01T00:56:35;4.80;;;0.47;;
7703;SDS011;3894;49.700;10.770;2023-04-01T00:59:06;4.32;;;0.47;;
7703;SDS011;3894;49.700;10.770;2023-04-01T01:01:33;2.60;;;0.50;;
7703;SDS011;3894;49.700;10.770;2023-04-01T01:04:00;3.92;;;0.63;;
7703;SDS011;3894;49.700;10.770;2023-04-01T01:06:39;4.53;;;0.60;;
7703;SDS011;3894;49.700;10.770;2023-04-01T01:09:51;3.17;;;0.30;;
7703;SDS011;3894;49.700;10.770;2023-04-01T01:12:40;2.97;;;0.40;;
7703;SDS011;3894;49.700;10.770;2023-04-01T01:15:19;1.80;;;0.35;;
7703;SDS011;3894;49.700;10.770;2023-04-01T01:28:52;4.43;;;0.82;;
7703;SDS011;3894;49.700;10.770;2023-04-01T01:34:36;5.78;;;0.68;;
7703;SDS011;3894;49.700;10.770;2023-04-01T01:37:10;5.40;;;0.77;;
7703;SDS011;3894;49.700;10.770;2023-04-01T01:39:43;2.17;;;0.40;;
7703;SDS011;3894;49.700;10.770;2023-04-01T01:42:13;6.68;;;1.05;;
7703;SDS011;3894;49.700;10.770;2023-04-01T01:44:41;2.95;;;0.10;;
7703;SDS011;3894;49.700;10.770;2023-04-01T01:47:10;2.58;;;0.30;;
7703;SDS011;3894;49.700;10.770;2023-04-01T01:49:38;3.20;;;0.40;;
7703;SDS011;3894;49.700;10.770;2023-04-01T01:52:06;3.53;;;0.40;;
7703;SDS011;3894;49.700;10.770;2023-04-01T01:54:31;4.55;;;0.43;;
7703;SDS011;3894;49.700;10.770;2023-04-01T01:57:04;1.38;;;0.20;;
7703;SDS011;3894;49.700;10.770;2023-04-01T01:59:34;3.38;;;0.30;;
7703;SDS011;3894;49.700;10.770;2023-04-01T02:02:02;4.55;;;0.50;;
7703;SDS011;3894;49.700;10.770;2023-04-01T02:04:34;8.38;;;0.50;;
7703;SDS011;3894;49.700;10.770;2023-04-01T02:07:02;3.25;;;0.70;;
7703;SDS011;3894;49.700;10.770;2023-04-01T02:09:30;4.07;;;0.82;;
7703;SDS011;3894;49.700;10.770;2023-04-01T02:11:56;5.13;;;0.38;;
7703;SDS011;3894;49.700;10.770;2023-04-01T02:14:25;3.45;;;0.57;;
7703;SDS011;3894;49.700;10.770;2023-04-01T02:16:58;2.20;;;0.30;;
7703;SDS011;3894;49.700;10.770;2023-04-01T02:19:31;4.10;;;0.43;;
7703;SDS011;3894;49.700;10.770;2023-04-01T02:22:01;3.60;;;0.20;;
7703;SDS011;3894;49.700;10.770;2023-04-01T02:24:31;2.80;;;0.40;;
7703;SDS011;3894;49.700;10.770;2023-04-01T02:27:00;4.75;;;0.30;;
7703;SDS011;3894;49.700;10.770;2023-04-01T02:29:25;2.95;;;1.20;;
7703;SDS011;3894;49.700;10.770;2023-04-01T02:31:52;1.77;;;0.15;;
7703;SDS011;3894;49.700;10.770;2023-04-01T02:34:19;2.75;;;0.30;;
7703;SDS011;3894;49.700;10.770;2023-04-01T02:36:47;3.42;;;0.40;;
7703;SDS011;3894;49.700;10.770;2023-04-01T02:39:14;2.58;;;0.75;;
7703;SDS011;3894;49.700;10.770;2023-04-01T02:41:41;2.60;;;0.47;;
7703;SDS011;3894;49.700;10.770;2023-04-01T02:44:08;1.90;;;0.20;;
7703;SDS011;3894;49.700;10.770;2023-04-01T02:46:35;3.38;;;0.40;;
7703;SDS011;3894;49.700;10.770;2023-04-01T02:49:00;2.90;;;0.22;;
7703;SDS011;3894;49.700;10.770;2023-04-01T02:51:26;1.50;;;0.20;;
7703;SDS011;3894;49.700;10.770;2023-04-01T02:53:52;2.80;;;0.25;;
7703;SDS011;3894;49.700;10.770;2023-04-01T02:56:17;2.85;;;0.30;;
7703;SDS011;3894;49.700;10.770;2023-04-01T02:58:44;1.23;;;0.28;;
7703;SDS011;3894;49.700;10.770;2023-04-01T03:01:10;2.45;;;0.35;;
7703;SDS011;3894;49.700;10.770;2023-04-01T03:03:36;2.40;;;0.60;;
7703;SDS011;3894;49.700;10.770;2023-04-01T03:06:09;1.40;;;0.68;;
7703;SDS011;3894;49.700;10.770;2023-04-01T03:08:37;3.97;;;0.47;;
7703;SDS011;3894;49.700;10.770;2023-04-01T03:11:03;2.58;;;0.57;;
7703;SDS011;3894;49.700;10.770;2023-04-01T03:13:28;3.60;;;0.40;;
7703;SDS011;3894;49.700;10.770;2023-04-01T03:15:54;3.08;;;0.55;;
7703;SDS011;3894;49.700;10.770;2023-04-01T03:18:20;3.05;;;0.47;;
7703;SDS011;3894;49.700;10.770;2023-04-01T03:20:45;1.58;;;0.38;;
7703;SDS011;3894;49.700;10.770;2023-04-01T03:23:11;6.10;;;0.57;;
7703;SDS011;3894;49.700;10.770;2023-04-01T03:25:37;2.00;;;0.43;;
7703;SDS011;3894;49.700;10.770;2023-04-01T03:28:02;3.63;;;0.73;;
7703;SDS011;3894;49.700;10.770;2023-04-01T03:30:28;5.28;;;0.75;;
7703;SDS011;3894;49.700;10.770;2023-04-01T03:32:58;1.98;;;0.30;;
7703;SDS011;3894;49.700;10.770;2023-04-01T03:35:24;2.60;;;0.32;;
7703;SDS011;3894;49.700;10.770;2023-04-01T03:37:51;4.38;;;0.98;;
7703;SDS011;3894;49.700;10.770;2023-04-01T03:40:17;3.25;;;0.55;;
7703;SDS011;3894;49.700;10.770;2023-04-01T03:42:43;1.20;;;0.20;;
7703;SDS011;3894;49.700;10.770;2023-04-01T03:45:09;5.25;;;0.55;;
7703;SDS011;3894;49.700;10.770;2023-04-01T03:47:36;3.05;;;0.57;;
7703;SDS011;3894;49.700;10.770;2023-04-01T03:50:02;2.47;;;0.32;;
7703;SDS011;3894;49.700;10.770;2023-04-01T03:52:28;2.67;;;0.28;;
7703;SDS011;3894;49.700;10.770;2023-04-01T03:54:54;2.78;;;1.10;;
7703;SDS011;3894;49.700;10.770;2023-04-01T03:57:20;5.50;;;0.57;;
7703;SDS011;3894;49.700;10.770;2023-04-01T03:59:45;2.58;;;0.47;;
7703;SDS011;3894;49.700;10.770;2023-04-01T04:02:11;1.98;;;0.20;;
7703;SDS011;3894;49.700;10.770;2023-04-01T04:04:36;3.15;;;0.30;;
7703;SDS011;3894;49.700;10.770;2023-04-01T04:07:02;4.55;;;0.75;;
7703;SDS011;3894;49.700;10.770;2023-04-01T04:09:29;3.72;;;0.40;;
7703;SDS011;3894;49.700;10.770;2023-04-01T04:11:55;3.80;;;0.88;;
7703;SDS011;3894;49.700;10.770;2023-04-01T04:14:22;6.30;;;1.13;;
7703;SDS011;3894;49.700;10.770;2023-04-01T04:16:48;5.07;;;0.77;;
7703;SDS011;3894;49.700;10.770;2023-04-01T04:19:13;6.15;;;1.05;;
7703;SDS011;3894;49.700;10.770;2023-04-01T04:21:40;9.95;;;2.13;;
7703;SDS011;3894;49.700;10.770;2023-04-01T04:24:07;21.58;;;6.10;;
7703;SDS011;3894;49.700;10.770;2023-04-01T04:26:33;13.18;;;2.13;;
7703;SDS011;3894;49.700;10.770;2023-04-01T04:28:58;4.72;;;1.33;;
7703;SDS011;3894;49.700;10.770;2023-04-01T04:31:25;6.95;;;1.23;;
7703;SDS011;3894;49.700;10.770;2023-04-01T04:33:51;8.52;;;1.65;;
7703;SDS011;3894;49.700;10.770;2023-04-01T04:36:18;10.43;;;1.83;;
7703;SDS011;3894;49.700;10.770;2023-04-01T04:38:44;3.33;;;0.57;;
7703;SDS011;3894;49.700;10.770;2023-04-01T04:41:10;4.57;;;0.35;;
7703;SDS011;3894;49.700;10.770;2023-04-01T04:43:37;4.65;;;0.85;;
7703;SDS011;3894;49.700;10.770;2023-04-01T04:46:07;4.18;;;0.60;;
7703;SDS011;3894;49.700;10.770;2023-04-01T04:48:34;1.85;;;0.20;;
7703;SDS011;3894;49.700;10.770;2023-04-01T04:51:00;2.83;;;0.30;;
7703;SDS011;3894;49.700;10.770;2023-04-01T04:53:26;4.07;;;0.35;;
7703;SDS011;3894;49.700;10.770;2023-04-01T04:55:52;2.33;;;0.30;;
7703;SDS011;3894;49.700;10.770;2023-04-01T04:58:18;3.05;;;0.50;;
7703;SDS011;3894;49.700;10.770;2023-04-01T05:00:44;2.05;;;0.13;;
7703;SDS011;3894;49.700;10.770;2023-04-01T05:03:10;2.05;;;0.25;;
7703;SDS011;3894;49.700;10.770;2023-04-01T05:05:36;2.83;;;0.43;;
7703;SDS011;3894;49.700;10.770;2023-04-01T05:08:02;3.40;;;0.85;;
7703;SDS011;3894;49.700;10.770;2023-04-01T05:10:28;4.10;;;0.70;;
7703;SDS011;3894;49.700;10.770;2023-04-01T05:12:53;3.63;;;0.32;;
7703;SDS011;3894;49.700;10.770;2023-04-01T05:15:19;4.45;;;0.60;;
7703;SDS011;3894;49.700;10.770;2023-04-01T05:17:45;1.98;;;0.30;;
7703;SDS011;3894;49.700;10.770;2023-04-01T05:20:11;1.75;;;0.35;;
7703;SDS011;3894;49.700;10.770;2023-04-01T05:22:38;1.98;;;0.40;;
7703;SDS011;3894;49.700;10.770;2023-04-01T05:25:04;3.47;;;0.68;;
7703;SDS011;3894;49.700;10.770;2023-04-01T05:27:30;1.58;;;0.22;;
7703;SDS011;3894;49.700;10.770;2023-04-01T05:29:56;4.85;;;0.65;;
7703;SDS011;3894;49.700;10.770;2023-04-01T05:32:22;1.65;;;0.38;;
7703;SDS011;3894;49.700;10.770;2023-04-01T05:34:50;1.80;;;0.30;;
7703;SDS011;3894;49.700;10.770;2023-04-01T05:37:16;3.92;;;0.52;;
7703;SDS011;3894;49.700;10.770;2023-04-01T05:39:42;2.75;;;0.30;;
7703;SDS011;3894;49.700;10.770;2023-04-01T05:42:08;2.60;;;0.40;;
7703;SDS011;3894;49.700;10.770;2023-04-01T05:44:34;2.60;;;0.40;;
7703;SDS011;3894;49.700;10.770;2023-04-01T05:47:00;4.50;;;0.40;;
7703;SDS011;3894;49.700;10.770;2023-04-01T05:49:26;2.22;;;0.20;;
7703;SDS011;3894;49.700;10.770;2023-04-01T05:51:51;2.63;;;0.35;;
7703;SDS011;3894;49.700;10.770;2023-04-01T05:54:17;1.20;;;0.20;;
7703;SDS011;3894;49.700;10.770;2023-04-01T05:56:43;2.72;;;0.60;;
7703;SDS011;3894;49.700;10.770;2023-04-01T05:59:10;5.07;;;0.57;;
7703;SDS011;3894;49.700;10.770;2023-04-01T06:01:36;4.60;;;0.52;;
7703;SDS011;3894;49.700;10.770;2023-04-01T06:04:02;3.30;;;0.80;;
7703;SDS011;3894;49.700;10.770;2023-04-01T06:06:28;2.72;;;0.55;;
7703;SDS011;3894;49.700;10.770;2023-04-01T06:08:57;4.68;;;0.60;;
7703;SDS011;3894;49.700;10.770;2023-04-01T06:17:50;2.47;;;0.68;;
7703;SDS011;3894;49.700;10.770;2023-04-01T06:20:47;3.28;;;0.63;;
7703;SDS011;3894;49.700;10.770;2023-04-01T06:26:17;4.03;;;0.40;;
7703;SDS011;3894;49.700;10.770;2023-04-01T06:29:16;4.20;;;0.65;;
7703;SDS011;3894;49.700;10.770;2023-04-01T06:40:24;2.05;;;0.28;;
7703;SDS011;3894;49.700;10.770;2023-04-01T06:53:45;2.22;;;0.40;;
7703;SDS011;3894;49.700;10.770;2023-04-01T06:56:26;2.03;;;0.20;;
7703;SDS011;3894;49.700;10.770;2023-04-01T06:59:09;2.40;;;0.40;;
7703;SDS011;3894;49.700;10.770;2023-04-01T07:01:57;1.27;;;0.30;;
7703;SDS011;3894;49.700;10.770;2023-04-01T07:04:37;1.50;;;0.17;;
7703;SDS011;3894;49.700;10.770;2023-04-01T07:07:21;2.45;;;0.50;;
7703;SDS011;3894;49.700;10.770;2023-04-01T07:09:55;2.63;;;0.43;;
7703;SDS011;3894;49.700;10.770;2023-04-01T07:12:46;1.90;;;0.40;;
7703;SDS011;3894;49.700;10.770;2023-04-01T07:20:48;3.50;;;0.40;;
7703;SDS011;3894;49.700;10.770;2023-04-01T07:23:19;2.10;;;0.40;;
7703;SDS011;3894;49.700;10.770;2023-04-01T07:25:51;1.23;;;0.10;;
7703;SDS011;3894;49.700;10.770;2023-04-01T07:28:20;1.67;;;0.30;;
7703;SDS011;3894;49.700;10.770;2023-04-01T07:36:45;2.60;;;0.40;;
7703;SDS011;3894;49.700;10.770;2023-04-01T07:41:59;4.93;;;0.40;;
7703;SDS011;3894;49.700;10.770;2023-04-01T07:44:38;2.60;;;0.60;;
7703;SDS011;3894;49.700;10.770;2023-04-01T07:47:19;1.83;;;0.50;;
7703;SDS011;3894;49.700;10.770;2023-04-01T07:52:47;4.30;;;0.47;;
7703;SDS011;3894;49.700;10.770;2023-04-01T07:55:16;1.83;;;0.40;;
7703;SDS011;3894;49.700;10.770;2023-04-01T08:00:18;0.77;;;0.10;;
7703;SDS011;3894;49.700;10.770;2023-04-01T08:13:33;3.22;;;0.63;;
7703;SDS011;3894;49.700;10.770;2023-04-01T08:21:35;3.47;;;0.80;;
7703;SDS011;3894;49.700;10.770;2023-04-01T08:27:41;2.00;;;0.38;;
7703;SDS011;3894;49.700;10.770;2023-04-01T08:32:58;3.80;;;0.80;;
7703;SDS011;3894;49.700;10.770;2023-04-01T08:35:46;4.60;;;1.00;;
7703;SDS011;3894;49.700;10.770;2023-04-01T08:38:39;5.50;;;0.98;;
7703;SDS011;3894;49.700;10.770;2023-04-01T08:44:00;3.13;;;0.50;;
7703;SDS011;3894;49.700;10.770;2023-04-01T08:46:45;2.22;;;0.55;;
7703;SDS011;3894;49.700;10.770;2023-04-01T08:52:33;2.35;;;0.60;;
7703;SDS011;3894;49.700;10.770;2023-04-01T08:55:37;3.00;;;0.43;;
7703;SDS011;3894;49.700;10.770;2023-04-01T08:58:32;1.70;;;0.20;;
7703;SDS011;3894;49.700;10.770;2023-04-01T09:01:22;3.15;;;0.47;;
7703;SDS011;3894;49.700;10.770;2023-04-01T09:04:13;2.08;;;0.30;;
7703;SDS011;3894;49.700;10.770;2023-04-01T09:09:49;0.85;;;0.10;;
7703;SDS011;3894;49.700;10.770;2023-04-01T09:18:13;1.67;;;0.30;;
7703;SDS011;3894;49.700;10.770;2023-04-01T09:20:58;2.88;;;0.85;;
7703;SDS011;3894;49.700;10.770;2023-04-01T09:37:53;2.47;;;0.40;;
7703;SDS011;3894;49.700;10.770;2023-04-01T09:43:16;1.80;;;0.50;;
7703;SDS011;3894;49.700;10.770;2023-04-01T09:51:26;2.30;;;0.30;;
7703;SDS011;3894;49.700;10.770;2023-04-01T10:05:50;13.68;;;6.07;;
7703;SDS011;3894;49.700;10.770;2023-04-01T10:20:12;4.65;;;1.90;;
7703;SDS011;3894;49.700;10.770;2023-04-01T10:23:26;4.82;;;2.20;;
7703;SDS011;3894;49.700;10.770;2023-04-01T10:31:35;3.28;;;0.77;;
7703;SDS011;3894;49.700;10.770;2023-04-01T10:37:23;3.85;;;2.00;;
7703;SDS011;3894;49.700;10.770;2023-04-01T10:43:29;6.63;;;2.60;;
7703;SDS011;3894;49.700;10.770;2023-04-01T10:49:24;6.47;;;2.05;;
7703;SDS011;3894;49.700;10.770;2023-04-01T10:54:46;3.83;;;1.00;;
7703;SDS011;3894;49.700;10.770;2023-04-01T11:28:16;6.38;;;2.85;;
7703;SDS011;3894;49.700;10.770;2023-04-01T11:33:44;6.35;;;2.83;;
7703;SDS011;3894;49.700;10.770;2023-04-01T11:42:17;11.38;;;4.85;;
7703;SDS011;3894;49.700;10.770;2023-04-01T11:45:35;6.28;;;3.10;;
7703;SDS011;3894;49.700;10.770;2023-04-01T11:53:02;4.20;;;1.52;;
7703;SDS011;3894;49.700;10.770;2023-04-01T12:01:34;7.07;;;3.42;;
7703;SDS011;3894;49.700;10.770;2023-04-01T12:09:37;12.82;;;6.30;;
7703;SDS011;3894;49.700;10.770;2023-04-01T12:26:57;13.88;;;8.73;;
7703;SDS011;3894;49.700;10.770;2023-04-01T12:32:32;7.95;;;5.75;;
7703;SDS011;3894;49.700;10.770;2023-04-01T12:35:19;7.15;;;3.35;;
7703;SDS011;3894;49.700;10.770;2023-04-01T12:37:49;9.20;;;5.43;;
7703;SDS011;3894;49.700;10.770;2023-04-01T12:45:47;7.95;;;5.55;;
7703;SDS011;3894;49.700;10.770;2023-04-01T13:00:09;6.07;;;2.58;;
7703;SDS011;3894;49.700;10.770;2023-04-01T13:08:52;3.13;;;0.93;;
7703;SDS011;3894;49.700;10.770;2023-04-01T13:20:11;9.00;;;5.32;;
7703;SDS011;3894;49.700;10.770;2023-04-01T13:28:23;6.65;;;3.03;;
7703;SDS011;3894;49.700;10.770;2023-04-01T13:30:59;4.47;;;2.05;;
7703;SDS011;3894;49.700;10.770;2023-04-01T13:33:47;5.22;;;1.92;;
7703;SDS011;3894;49.700;10.770;2023-04-01T13:36:38;6.72;;;3.85;;
7703;SDS011;3894;49.700;10.770;2023-04-01T13:42:21;6.45;;;3.53;;
7703;SDS011;3894;49.700;10.770;2023-04-01T13:47:41;9.63;;;4.05;;
7703;SDS011;3894;49.700;10.770;2023-04-01T13:53:09;5.50;;;1.95;;
7703;SDS011;3894;49.700;10.770;2023-04-01T13:55:59;5.80;;;1.27;;
7703;SDS011;3894;49.700;10.770;2023-04-01T13:58:49;2.92;;;0.88;;
7703;SDS011;3894;49.700;10.770;2023-04-01T14:16:20;2.90;;;0.63;;
7703;SDS011;3894;49.700;10.770;2023-04-01T14:19:20;4.28;;;1.52;;
7703;SDS011;3894;49.700;10.770;2023-04-01T14:25:04;5.03;;;2.47;;
7703;SDS011;3894;49.700;10.770;2023-04-01T14:38:31;3.78;;;1.00;;
7703;SDS011;3894;49.700;10.770;2023-04-01T14:43:46;4.35;;;1.00;;
7703;SDS011;3894;49.700;10.770;2023-04-01T14:49:14;5.15;;;1.42;;
7703;SDS011;3894;49.700;10.770;2023-04-01T14:51:41;6.82;;;3.30;;
7703;SDS011;3894;49.700;10.770;2023-04-01T14:56:41;5.78;;;2.67;;
7703;SDS011;3894;49.700;10.770;2023-04-01T15:19:57;5.13;;;3.33;;
7703;SDS011;3894;49.700;10.770;2023-04-01T15:31:10;24.52;;;11.57;;
7703;SDS011;3894;49.700;10.770;2023-04-01T15:39:30;6.28;;;2.95;;
7703;SDS011;3894;49.700;10.770;2023-04-01T15:45:13;4.97;;;2.10;;
7703;SDS011;3894;49.700;10.770;2023-04-01T15:50:48;5.22;;;2.40;;
7703;SDS011;3894;49.700;10.770;2023-04-01T15:56:36;6.97;;;2.65;;
7703;SDS011;3894;49.700;10.770;2023-04-01T16:23:16;8.10;;;3.70;;
7703;SDS011;3894;49.700;10.770;2023-04-01T16:29:02;7.45;;;3.60;;
7703;SDS011;3894;49.700;10.770;2023-04-01T16:31:41;4.65;;;1.80;;
7703;SDS011;3894;49.700;10.770;2023-04-01T16:34:19;10.02;;;4.35;;
7703;SDS011;3894;49.700;10.770;2023-04-01T16:37:15;5.95;;;2.53;;
7703;SDS011;3894;49.700;10.770;2023-04-01T16:39:48;6.90;;;2.53;;
7703;SDS011;3894;49.700;10.770;2023-04-01T16:42:44;7.40;;;2.65;;
7703;SDS011;3894;49.700;10.770;2023-04-01T16:48:15;15.73;;;7.20;;
7703;SDS011;3894;49.700;10.770;2023-04-01T16:53:36;9.55;;;3.58;;
7703;SDS011;3894;49.700;10.770;2023-04-01T16:56:11;7.80;;;3.55;;
7703;SDS011;3894;49.700;10.770;2023-04-01T16:59:13;6.88;;;3.15;;
7703;SDS011;3894;49.700;10.770;2023-04-01T17:04:39;4.30;;;1.58;;
7703;SDS011;3894;49.700;10.770;2023-04-01T17:07:55;3.88;;;1.42;;
7703;SDS011;3894;49.700;10.770;2023-04-01T17:13:06;4.35;;;1.90;;
7703;SDS011;3894;49.700;10.770;2023-04-01T17:34:02;2.95;;;1.15;;
7703;SDS011;3894;49.700;10.770;2023-04-01T17:37:01;4.35;;;1.40;;
7703;SDS011;3894;49.700;10.770;2023-04-01T17:45:57;11.57;;;5.60;;
7703;SDS011;3894;49.700;10.770;2023-04-01T17:48:55;6.13;;;2.88;;
7703;SDS011;3894;49.700;10.770;2023-04-01T17:51:51;5.78;;;2.30;;
7703;SDS011;3894;49.700;10.770;2023-04-01T18:08:16;4.63;;;1.95;;
7703;SDS011;3894;49.700;10.770;2023-04-01T18:11:05;4.15;;;1.27;;
7703;SDS011;3894;49.700;10.770;2023-04-01T18:13:55;5.00;;;2.00;;
7703;SDS011;3894;49.700;10.770;2023-04-01T18:22:19;8.43;;;3.45;;
7703;SDS011;3894;49.700;10.770;2023-04-01T18:27:40;7.65;;;2.80;;
7703;SDS011;3894;49.700;10.770;2023-04-01T18:30:22;7.22;;;3.65;;
7703;SDS011;3894;49.700;10.770;2023-04-01T18:32:58;9.57;;;3.83;;
7703;SDS011;3894;49.700;10.770;2023-04-01T18:35:34;7.20;;;2.28;;
7703;SDS011;3894;49.700;10.770;2023-04-01T18:38:24;5.97;;;2.17;;
7703;SDS011;3894;49.700;10.770;2023-04-01T18:49:15;11.48;;;6.22;;
7703;SDS011;3894;49.700;10.770;2023-04-01T18:55:20;8.13;;;4.30;;
7703;SDS011;3894;49.700;10.770;2023-04-01T18:57:53;6.07;;;1.90;;
7703;SDS011;3894;49.700;10.770;2023-04-01T19:00:25;4.70;;;1.55;;
7703;SDS011;3894;49.700;10.770;2023-04-01T19:06:08;6.72;;;2.92;;
7703;SDS011;3894;49.700;10.770;2023-04-01T19:08:42;6.00;;;2.10;;
7703;SDS011;3894;49.700;10.770;2023-04-01T19:11:24;7.00;;;1.67;;
7703;SDS011;3894;49.700;10.770;2023-04-01T19:30:10;4.90;;;2.05;;
7703;SDS011;3894;49.700;10.770;2023-04-01T19:38:39;6.20;;;1.80;;
7703;SDS011;3894;49.700;10.770;2023-04-01T19:46:23;8.25;;;3.30;;
7703;SDS011;3894;49.700;10.770;2023-04-01T19:57:38;4.97;;;1.95;;
7703;SDS011;3894;49.700;10.770;2023-04-01T20:00:20;6.10;;;2.10;;
7703;SDS011;3894;49.700;10.770;2023-04-01T20:02:56;5.80;;;1.40;;
7703;SDS011;3894;49.700;10.770;2023-04-01T20:08:41;6.53;;;1.83;;
7703;SDS011;3894;49.700;10.770;2023-04-01T20:19:43;2.83;;;0.82;;
7703;SDS011;3894;49.700;10.770;2023-04-01T20:25:19;6.50;;;1.65;;
7703;SDS011;3894;49.700;10.770;2023-04-01T20:27:56;6.22;;;1.67;;
7703;SDS011;3894;49.700;10.770;2023-04-01T20:30:34;5.97;;;1.35;;
7703;SDS011;3894;49.700;10.770;2023-04-01T20:33:57;4.75;;;1.17;;
7703;SDS011;3894;49.700;10.770;2023-04-01T20:44:46;7.93;;;2.30;;
7703;SDS011;3894;49.700;10.770;2023-04-01T20:52:36;3.55;;;1.00;;
7703;SDS011;3894;49.700;10.770;2023-04-01T20:57:48;3.83;;;0.77;;
7703;SDS011;3894;49.700;10.770;2023-04-01T21:00:46;3.08;;;0.55;;
7703;SDS011;3894;49.700;10.770;2023-04-01T21:03:41;3.58;;;0.82;;
7703;SDS011;3894;49.700;10.770;2023-04-01T21:09:29;3.22;;;0.40;;
7703;SDS011;3894;49.700;10.770;2023-04-01T21:12:12;3.10;;;0.75;;
7703;SDS011;3894;49.700;10.770;2023-04-01T21:15:07;3.97;;;0.90;;
7703;SDS011;3894;49.700;10.770;2023-04-01T21:17:50;2.78;;;0.57;;
7703;SDS011;3894;49.700;10.770;2023-04-01T21:25:51;3.13;;;0.65;;
7703;SDS011;3894;49.700;10.770;2023-04-01T21:28:44;2.85;;;0.52;;
7703;SDS011;3894;49.700;10.770;2023-04-01T22:03:45;2.92;;;0.50;;
7703;SDS011;3894;49.700;10.770;2023-04-01T22:06:40;2.80;;;0.98;;
7703;SDS011;3894;49.700;10.770;2023-04-01T22:09:28;4.95;;;1.17;;
7703;SDS011;3894;49.700;10.770;2023-04-01T22:17:19;3.95;;;0.90;;
7703;SDS011;3894;49.700;10.770;2023-04-01T22:23:06;4.80;;;1.40;;
7703;SDS011;3894;49.700;10.770;2023-04-01T22:26:00;4.57;;;1.27;;
7703;SDS011;3894;49.700;10.770;2023-04-01T22:31:08;7.88;;;1.73;;
7703;SDS011;3894;49.700;10.770;2023-04-01T22:36:24;4.20;;;0.85;;
7703;SDS011;3894;49.700;10.770;2023-04-01T22:42:00;4.05;;;1.08;;
7703;SDS011;3894;49.700;10.770;2023-04-01T22:47:32;3.20;;;1.00;;
7703;SDS011;3894;49.700;10.770;2023-04-01T22:50:48;2.22;;;0.70;;
7703;SDS011;3894;49.700;10.770;2023-04-01T22:55:40;3.88;;;0.70;;
7703;SDS011;3894;49.700;10.770;2023-04-01T22:58:18;4.35;;;0.85;;
7703;SDS011;3894;49.700;10.770;2023-04-01T23:00:51;3.17;;;0.95;;
7703;SDS011;3894;49.700;10.770;2023-04-01T23:05:55;2.85;;;0.70;;
7703;SDS011;3894;49.700;10.770;2023-04-01T23:08:39;3.47;;;1.02;;
7703;SDS011;3894;49.700;10.770;2023-04-01T23:11:23;3.70;;;1.20;;
7703;SDS011;3894;49.700;10.770;2023-04-01T23:22:02;3.22;;;0.52;;
7703;SDS011;3894;49.700;10.770;2023-04-01T23:24:40;4.22;;;1.10;;
7703;SDS011;3894;49.700;10.770;2023-04-01T23:30:19;4.15;;;1.52;;
7703;SDS011;3894;49.700;10.770;2023-04-01T23:38:40;4.32;;;1.17;;
7703;SDS011;3894;49.700;10.770;2023-04-01T23:41:30;4.70;;;0.85;;
7703;SDS011;3894;49.700;10.770;2023-04-01T23:46:25;2.70;;;0.73;;
7703;SDS011;3894;49.700;10.770;2023-04-01T23:48:51;5.28;;;1.10;;
7703;SDS011;3894;49.700;10.770;2023-04-01T23:51:19;2.95;;;0.88;;
7703;SDS011;3894;49.700;10.770;2023-04-01T23:54:01;4.13;;;1.30;;
7703;SDS011;3894;49.700;10.770;2023-04-01T23:56:39;4.65;;;0.93;;
7703;SDS011;3894;49.700;10.770;2023-04-01T23:59:14;3.95;;;1.02;;
